createdAt,value
2022-10-13T00:00:35.363Z,101431.50
2022-10-13T00:03:33.324Z,101436.30
2022-10-13T00:06:23.405Z,101427.00
2022-10-13T00:09:12.843Z,101422.69
2022-10-13T00:12:00.934Z,101426.34
2022-10-13T00:14:49.273Z,101426.52
2022-10-13T00:17:37.766Z,101424.02
2022-10-13T00:20:25.960Z,101424.20
2022-10-13T00:23:15.007Z,101415.72
2022-10-13T00:26:05.889Z,101420.36
2022-10-13T00:28:55.591Z,101418.70
2022-10-13T00:31:43.771Z,101414.56
2022-10-13T00:34:31.890Z,101411.25
2022-10-13T00:37:19.961Z,101403.28
2022-10-13T00:40:09.612Z,101410.41
2022-10-13T00:42:58.664Z,101410.58
2022-10-13T00:45:49.690Z,101410.73
2022-10-13T00:48:38.639Z,101408.26
2022-10-13T00:51:33.755Z,101405.94
2022-10-13T00:54:24.784Z,101412.05
2022-10-13T00:57:13.237Z,101406.92
2022-10-13T01:00:03.562Z,101410.58
2022-10-13T01:02:52.485Z,101407.92
2022-10-13T01:05:43.156Z,101412.38
2022-10-13T01:08:31.998Z,101417.02
2022-10-13T01:11:47.629Z,101419.67
2022-10-13T01:14:48.218Z,101417.20
2022-10-13T01:17:49.036Z,101420.00
2022-10-13T01:20:54.938Z,101426.30
2022-10-13T01:23:58.723Z,101428.95
2022-10-13T01:27:08.819Z,101425.64
2022-10-13T01:30:09.517Z,101422.98
2022-10-13T01:33:10.727Z,101426.63
2022-10-13T01:36:13.965Z,101432.92
2022-10-13T01:39:09.686Z,101431.27
2022-10-13T01:42:11.224Z,101424.30
2022-10-13T01:45:03.133Z,101413.87
2022-10-13T01:47:52.968Z,101420.98
2022-10-13T01:50:41.059Z,101421.97
2022-10-13T01:53:30.477Z,101416.99
2022-10-13T01:56:19.846Z,101420.49
2022-10-13T01:59:11.481Z,101410.20
2022-10-13T02:02:10.890Z,101407.70
2022-10-13T02:05:10.042Z,101414.32
2022-10-13T02:08:04.165Z,101408.20
2022-10-13T02:10:58.795Z,101406.69
2022-10-13T02:13:53.060Z,101408.67
2022-10-13T02:16:45.766Z,101412.50
2022-10-13T02:19:37.773Z,101413.63
2022-10-13T02:22:31.235Z,101412.96
2022-10-13T02:25:21.470Z,101406.50
2022-10-13T02:28:12.916Z,101407.31
2022-10-13T02:31:04.007Z,101404.98
2022-10-13T02:33:52.434Z,101404.48
2022-10-13T02:36:41.454Z,101404.63
2022-10-13T02:39:29.347Z,101409.27
2022-10-13T02:42:18.098Z,101403.47
2022-10-13T02:45:09.878Z,101397.64
2022-10-13T02:47:58.092Z,101400.47
2022-10-13T02:50:48.060Z,101401.60
2022-10-13T02:53:36.142Z,101392.98
2022-10-13T02:56:24.549Z,101394.15
2022-10-13T02:59:12.968Z,101404.22
2022-10-13T03:02:00.810Z,101408.70
2022-10-13T03:04:51.352Z,101411.50
2022-10-13T03:07:40.153Z,101401.08
2022-10-13T03:10:29.100Z,101398.73
2022-10-13T03:13:18.927Z,101409.48
2022-10-13T03:16:08.535Z,101408.81
2022-10-13T03:18:57.469Z,101410.79
2022-10-13T03:21:45.480Z,101403.83
2022-10-13T03:24:33.706Z,101402.31
2022-10-13T03:27:22.409Z,101401.64
2022-10-13T03:30:12.853Z,101399.13
2022-10-13T03:33:02.428Z,101401.11
2022-10-13T03:35:50.828Z,101399.45
2022-10-13T03:38:39.683Z,101396.13
2022-10-13T03:41:29.702Z,101398.09
2022-10-13T03:44:18.010Z,101396.44
2022-10-13T03:47:06.219Z,101409.02
2022-10-13T03:49:54.718Z,101406.67
2022-10-13T03:52:42.409Z,101403.35
2022-10-13T03:55:31.502Z,101401.02
2022-10-13T03:58:20.234Z,101402.00
2022-10-13T04:01:11.242Z,101407.61
2022-10-13T04:04:03.190Z,101406.13
2022-10-13T04:06:51.517Z,101401.14
2022-10-13T04:09:39.716Z,101401.28
2022-10-13T04:12:28.199Z,101402.44
2022-10-13T04:15:16.259Z,101411.67
2022-10-13T04:18:04.804Z,101409.17
2022-10-13T04:20:52.848Z,101407.00
2022-10-13T04:24:01.415Z,101404.49
2022-10-13T04:26:49.919Z,101403.00
2022-10-13T04:29:38.471Z,101398.70
2022-10-13T04:32:34.277Z,101409.42
2022-10-13T04:35:34.492Z,101405.25
2022-10-13T04:38:31.620Z,101399.28
2022-10-13T04:41:28.736Z,101397.62
2022-10-13T04:44:24.355Z,101397.79
2022-10-13T04:47:20.899Z,101398.77
2022-10-13T04:50:22.900Z,101405.05
2022-10-13T04:53:29.958Z,101399.08
2022-10-13T04:56:25.267Z,101400.88
2022-10-13T04:59:20.107Z,101405.36
2022-10-13T05:02:16.128Z,101398.41
2022-10-13T05:05:12.599Z,101401.05
2022-10-13T05:08:07.148Z,101402.03
2022-10-13T05:11:04.910Z,101403.70
2022-10-13T05:14:02.607Z,101407.02
2022-10-13T05:16:57.974Z,101398.91
2022-10-13T05:19:55.090Z,101408.38
2022-10-13T05:22:50.699Z,101409.73
2022-10-13T05:25:48.420Z,101411.08
2022-10-13T05:28:46.891Z,101412.44
2022-10-13T05:31:42.537Z,101408.50
2022-10-13T05:34:40.765Z,101416.80
2022-10-13T05:37:38.401Z,101416.86
2022-10-13T05:40:35.072Z,101423.36
2022-10-13T05:43:36.145Z,101428.54
2022-10-13T05:46:33.321Z,101413.36
2022-10-13T05:49:30.707Z,101428.34
2022-10-13T05:52:27.128Z,101439.66
2022-10-13T05:55:25.378Z,101433.94
2022-10-13T05:58:22.522Z,101441.61
2022-10-13T06:01:25.327Z,101437.82
2022-10-13T06:04:23.200Z,101440.03
2022-10-13T06:07:21.888Z,101442.20
2022-10-13T06:26:41.794Z,101453.39
2022-10-13T06:29:33.319Z,101451.86
2022-10-13T06:32:29.166Z,101458.16
2022-10-13T06:35:17.814Z,101473.25
2022-10-13T06:38:06.453Z,101467.07
2022-10-13T06:40:59.607Z,101464.50
2022-10-13T06:43:47.890Z,101459.30
2022-10-13T06:46:37.943Z,101462.87
2022-10-13T06:49:26.806Z,101458.61
2022-10-13T06:52:14.531Z,101456.03
2022-10-13T06:55:03.400Z,101455.42
2022-10-13T06:57:55.114Z,101458.31
2022-10-13T07:00:44.063Z,101454.22
2022-10-13T07:03:33.586Z,101461.45
2022-10-13T07:06:23.104Z,101460.84
2022-10-13T07:09:14.991Z,101459.03
2022-10-13T07:12:03.578Z,101458.02
2022-10-13T07:14:52.160Z,101460.48
2022-10-13T07:17:41.209Z,101454.52
2022-10-13T07:20:29.838Z,101449.98
2022-10-13T07:23:18.671Z,101446.46
2022-10-13T07:26:19.663Z,101441.91
2022-10-13T07:29:24.863Z,101435.16
2022-10-13T07:32:13.609Z,101441.27
2022-10-13T07:35:03.350Z,101439.98
2022-10-13T07:37:58.555Z,101432.07
2022-10-13T07:40:48.511Z,101443.92
2022-10-13T07:43:39.513Z,101437.45
2022-10-13T07:46:28.325Z,101438.80
2022-10-13T07:49:16.704Z,101436.82
2022-10-13T07:52:06.653Z,101444.55
2022-10-13T07:54:56.497Z,101441.71
2022-10-13T07:57:45.450Z,101443.00
2022-10-13T08:00:34.871Z,101442.85
2022-10-13T08:03:29.528Z,101442.48
2022-10-13T08:06:19.584Z,101444.95
2022-10-13T08:09:11.871Z,101443.94
2022-10-13T08:12:03.717Z,101442.28
2022-10-13T08:14:52.624Z,101436.98
2022-10-13T08:17:43.015Z,101441.30
2022-10-13T08:20:41.029Z,101443.73
2022-10-13T08:23:40.509Z,101442.67
2022-10-13T08:26:30.593Z,101431.70
2022-10-13T08:29:24.489Z,101426.91
2022-10-13T08:32:14.348Z,101436.75
2022-10-13T08:35:06.810Z,101428.02
2022-10-13T08:37:57.539Z,101422.61
2022-10-13T08:40:52.891Z,101427.91
2022-10-13T08:44:13.486Z,101415.42
2022-10-13T08:47:05.201Z,101423.19
2022-10-13T08:49:57.702Z,101412.33
2022-10-13T08:52:53.977Z,101410.14
2022-10-13T08:55:56.615Z,101405.44
2022-10-13T08:59:02.361Z,101409.23
2022-10-13T09:01:55.558Z,101404.11
2022-10-13T09:04:50.270Z,101401.27
2022-10-13T09:07:49.288Z,101402.75
2022-10-13T09:10:54.660Z,101397.20
2022-10-13T09:13:43.846Z,101397.62
2022-10-13T09:16:37.029Z,101403.91
2022-10-13T09:19:30.672Z,101405.61
2022-10-13T09:22:24.729Z,101398.84
2022-10-13T09:25:21.146Z,101397.67
2022-10-13T09:28:19.672Z,101404.16
2022-10-13T09:31:17.015Z,101398.77
2022-10-13T09:34:23.300Z,101395.05
2022-10-13T09:37:22.722Z,101393.65
2022-10-13T09:40:21.893Z,101396.92
2022-10-13T09:43:25.834Z,101386.97
2022-10-13T09:46:21.502Z,101385.33
2022-10-13T09:49:39.029Z,101386.61
2022-10-13T09:52:38.368Z,101388.94
2022-10-13T09:55:34.652Z,101391.50
2022-10-13T09:58:28.525Z,101390.32
2022-10-13T10:01:24.623Z,101384.77
2022-10-13T10:04:18.056Z,101382.75
2022-10-13T10:07:15.848Z,101380.50
2022-10-13T10:10:14.007Z,101370.70
2022-10-13T10:13:12.664Z,101371.17
2022-10-13T10:16:07.836Z,101365.61
2022-10-13T10:19:13.943Z,101363.83
2022-10-13T10:22:08.575Z,101363.09
2022-10-13T10:25:04.724Z,101357.77
2022-10-13T10:28:42.059Z,101355.41
2022-10-13T10:31:46.654Z,101349.38
2022-10-13T10:34:46.404Z,101346.50
2022-10-13T10:38:05.043Z,101342.00
2022-10-13T10:41:03.977Z,101334.55
2022-10-13T10:43:55.609Z,101330.85
2022-10-13T10:47:43.677Z,101329.03
2022-10-13T10:50:40.039Z,101327.80
2022-10-13T10:53:38.226Z,101322.39
2022-10-13T10:57:31.593Z,101313.31
2022-10-13T11:00:53.659Z,101305.27
2022-10-13T11:04:05.864Z,101294.52
2022-10-13T11:06:54.028Z,101291.88
2022-10-13T11:10:21.225Z,101292.45
2022-10-13T11:13:18.741Z,101292.75
2022-10-13T11:16:31.357Z,101289.30
2022-10-13T11:19:32.616Z,101285.59
2022-10-13T11:22:26.043Z,101278.61
2022-10-13T11:25:36.276Z,101274.27
2022-10-13T11:28:46.722Z,101267.27
2022-10-13T11:31:55.156Z,101261.35
2022-10-13T11:34:59.812Z,101257.58
2022-10-13T11:38:11.540Z,101258.14
2022-10-13T11:41:16.691Z,101248.95
2022-10-13T11:44:12.429Z,101249.57
2022-10-13T11:47:19.984Z,101248.55
2022-10-13T11:50:21.042Z,101240.48
2022-10-13T11:53:17.077Z,101239.97
2022-10-13T11:56:05.158Z,101234.18
2022-10-13T11:58:54.263Z,101225.82
2022-10-13T12:01:45.935Z,101238.58
2022-10-13T12:04:46.318Z,101235.36
2022-10-13T12:07:43.841Z,101232.41
2022-10-13T12:10:35.717Z,101237.31
2022-10-13T12:13:32.249Z,101234.61
2022-10-13T12:16:22.401Z,101235.58
2022-10-13T12:19:22.367Z,101235.77
2022-10-13T12:22:16.503Z,101229.55
2022-10-13T12:25:06.706Z,101229.03
2022-10-13T12:27:57.245Z,101226.89
2022-10-13T12:30:53.310Z,101220.13
2022-10-13T12:33:42.012Z,101223.97
2022-10-13T12:36:35.634Z,101220.74
2022-10-13T12:39:26.288Z,101218.87
2022-10-13T12:42:15.681Z,101215.65
2022-10-13T12:45:05.169Z,101216.20
2022-10-13T12:47:55.850Z,101210.31
2022-10-13T12:50:44.766Z,101205.94
2022-10-13T12:53:34.023Z,101198.88
2022-10-13T12:56:31.317Z,101189.20
2022-10-13T12:59:23.638Z,101192.20
2022-10-13T13:02:28.270Z,101186.27
2022-10-13T13:06:22.745Z,101187.38
2022-10-13T13:09:48.651Z,101189.57
2022-10-13T13:12:45.566Z,101186.63
2022-10-13T13:15:39.109Z,101184.98
2022-10-13T13:18:47.684Z,101183.59
2022-10-13T13:21:46.237Z,101174.36
2022-10-13T13:24:45.074Z,101189.45
2022-10-13T13:27:56.014Z,101180.95
2022-10-13T13:30:56.788Z,101188.77
2022-10-13T13:34:02.992Z,101195.77
2022-10-13T13:37:25.056Z,101178.86
2022-10-13T13:40:40.025Z,101183.10
2022-10-13T13:43:54.162Z,101181.92
2022-10-13T13:46:55.907Z,101181.06
2022-10-13T13:50:23.091Z,101181.19
2022-10-13T13:53:26.032Z,101182.91
2022-10-13T13:56:24.068Z,101175.78
2022-10-13T13:59:12.541Z,101180.35
2022-10-13T14:02:03.027Z,101176.02
2022-10-13T14:04:52.839Z,101175.45
2022-10-13T14:07:48.467Z,101166.70
2022-10-13T14:10:39.090Z,101175.32
2022-10-13T14:13:57.867Z,101165.27
2022-10-13T14:16:50.469Z,101167.91
2022-10-13T14:19:39.140Z,101165.70
2022-10-13T14:22:27.724Z,101164.58
2022-10-13T14:25:28.449Z,101166.70
2022-10-13T14:28:18.442Z,101160.16
2022-10-13T14:31:14.249Z,101168.74
2022-10-13T14:34:21.568Z,101160.33
2022-10-13T14:37:14.251Z,101154.85
2022-10-13T14:40:07.543Z,101159.92
2022-10-13T14:43:06.799Z,101161.75
2022-10-13T14:47:14.356Z,101163.55
2022-10-13T14:49:30.922Z,101164.53
2022-10-13T14:53:26.871Z,101164.45
2022-10-13T14:56:54.445Z,101164.61
2022-10-13T15:00:15.890Z,101163.70
2022-10-13T15:03:29.509Z,101164.94
2022-10-13T15:06:24.672Z,101165.66
2022-10-13T15:09:29.072Z,101167.48
2022-10-13T15:12:46.184Z,101169.26
2022-10-13T15:19:27.291Z,101157.88
2022-10-13T15:22:15.405Z,101177.58
2022-10-13T15:25:07.575Z,101176.69
2022-10-13T15:27:56.529Z,101181.98
2022-10-13T15:30:45.495Z,101179.20
2022-10-13T15:33:36.796Z,101174.99
2022-10-13T15:36:35.826Z,101185.95
2022-10-13T15:39:23.931Z,101183.38
2022-10-13T15:42:12.734Z,101184.55
2022-10-13T15:45:16.062Z,101181.98
2022-10-13T15:48:11.743Z,101188.59
2022-10-13T15:51:01.805Z,101188.12
2022-10-13T15:53:49.810Z,101189.55
2022-10-13T15:56:39.561Z,101187.80
2022-10-13T15:59:27.673Z,101183.61
2022-10-13T16:02:16.579Z,101176.47
2022-10-13T16:05:09.805Z,101180.11
2022-10-13T16:08:01.665Z,101182.91
2022-10-13T16:10:49.808Z,101173.07
2022-10-13T16:13:38.160Z,101180.23
2022-10-13T16:16:54.749Z,101173.31
2022-10-13T16:19:44.165Z,101174.68
2022-10-13T16:22:33.605Z,101179.36
2022-10-13T16:25:21.892Z,101170.81
2022-10-13T16:28:11.052Z,101174.66
2022-10-13T16:31:04.233Z,101188.45
2022-10-13T16:33:54.451Z,101183.61
2022-10-13T16:36:43.709Z,101177.75
2022-10-13T16:39:31.990Z,101182.63
2022-10-13T16:42:20.111Z,101184.59
2022-10-13T16:45:09.827Z,101183.06
2022-10-13T16:47:58.151Z,101171.57
2022-10-13T16:50:46.903Z,101176.19
2022-10-13T16:53:51.347Z,101184.11
2022-10-13T17:01:19.725Z,101190.43
2022-10-13T17:05:13.721Z,101179.16
2022-10-13T17:08:20.789Z,101187.59
2022-10-13T17:24:05.142Z,101188.17
2022-10-13T17:26:55.060Z,101184.39
2022-10-13T17:29:43.893Z,101186.78
2022-10-13T17:32:38.126Z,101179.25
2022-10-13T17:35:44.941Z,101184.39
2022-10-13T17:38:34.013Z,101191.56
2022-10-13T17:41:24.415Z,101189.97
2022-10-13T17:44:13.265Z,101188.49
2022-10-13T17:47:02.035Z,101182.19
2022-10-13T17:49:50.203Z,101177.30
2022-10-13T17:52:40.028Z,101176.95
2022-10-13T17:55:28.324Z,101181.12
2022-10-13T17:58:16.871Z,101177.72
2022-10-13T18:01:13.379Z,101179.20
2022-10-13T18:04:04.519Z,101181.95
2022-10-13T18:06:54.360Z,101181.77
2022-10-13T18:09:42.638Z,101182.83
2022-10-13T18:12:30.967Z,101180.17
2022-10-13T18:15:19.380Z,101191.67
2022-10-13T18:18:07.938Z,101190.19
2022-10-13T18:20:56.855Z,101189.52
2022-10-13T18:23:45.624Z,101194.19
2022-10-13T18:26:35.316Z,101184.78
2022-10-13T18:29:23.083Z,101188.59
2022-10-13T18:32:11.717Z,101186.98
2022-10-13T18:34:59.852Z,101193.20
2022-10-13T18:37:52.541Z,101186.70
2022-10-13T18:40:41.280Z,101196.44
2022-10-13T18:43:31.371Z,101191.13
2022-10-13T18:46:20.022Z,101193.25
2022-10-13T18:49:12.197Z,101196.59
2022-10-13T18:52:12.571Z,101202.83
2022-10-13T18:55:01.767Z,101198.77
2022-10-13T18:57:58.813Z,101211.59
2022-10-13T19:00:47.881Z,101207.75
2022-10-13T19:03:39.916Z,101210.25
2022-10-13T19:06:31.836Z,101219.76
2022-10-13T19:09:21.112Z,101214.21
2022-10-13T19:12:09.897Z,101214.84
2022-10-13T19:14:58.217Z,101223.96
2022-10-13T19:17:46.501Z,101223.94
2022-10-13T19:20:34.762Z,101225.39
2022-10-13T19:23:26.284Z,101233.86
2022-10-13T19:26:16.732Z,101229.73
2022-10-13T19:29:08.874Z,101224.18
2022-10-13T19:31:59.863Z,101224.21
2022-10-13T19:34:47.905Z,101222.76
2022-10-13T19:37:36.465Z,101224.22
2022-10-13T19:40:24.866Z,101226.92
2022-10-13T19:43:13.438Z,101230.44
2022-10-13T19:46:02.137Z,101234.34
2022-10-13T19:48:50.423Z,101237.66
2022-10-13T19:51:41.349Z,101248.17
2022-10-13T19:54:33.767Z,101236.23
2022-10-13T19:57:23.531Z,101241.16
2022-10-13T20:00:16.828Z,101240.16
2022-10-13T20:03:05.627Z,101240.16
2022-10-13T20:05:54.017Z,101250.25
2022-10-13T20:08:42.588Z,101257.23
2022-10-13T20:11:30.798Z,101239.94
2022-10-13T20:14:19.449Z,101235.83
2022-10-13T20:17:07.337Z,101246.11
2022-10-13T20:19:55.461Z,101244.88
2022-10-13T20:22:43.758Z,101239.12
2022-10-13T20:25:35.246Z,101246.10
2022-10-13T20:28:23.343Z,101237.45
2022-10-13T20:31:12.488Z,101229.84
2022-10-13T20:34:00.617Z,101232.92
2022-10-13T20:36:51.635Z,101225.11
2022-10-13T20:39:40.985Z,101229.63
2022-10-13T20:42:29.573Z,101227.17
2022-10-13T20:45:17.875Z,101226.33
2022-10-13T20:48:06.422Z,101222.84
2022-10-13T20:50:59.096Z,101219.55
2022-10-13T20:53:48.648Z,101216.03
2022-10-13T20:56:36.992Z,101214.61
2022-10-13T20:59:25.513Z,101209.41
2022-10-13T21:02:16.303Z,101216.63
2022-10-13T21:05:04.762Z,101206.52
2022-10-13T21:07:53.834Z,101209.42
2022-10-13T21:10:42.275Z,101205.28
2022-10-13T21:13:31.816Z,101201.98
2022-10-13T21:16:23.571Z,101205.70
2022-10-13T21:19:14.859Z,101199.32
2022-10-13T21:22:03.809Z,101198.89
2022-10-13T21:24:51.997Z,101200.13
2022-10-13T21:27:40.296Z,101192.30
2022-10-13T21:30:28.190Z,101199.70
2022-10-13T21:33:16.130Z,101192.08
2022-10-13T21:36:06.715Z,101194.97
2022-10-13T21:38:58.335Z,101193.52
2022-10-13T21:41:46.497Z,101187.76
2022-10-13T21:44:35.586Z,101199.48
2022-10-13T21:47:30.010Z,101194.31
2022-10-13T21:50:18.240Z,101195.34
2022-10-13T21:53:08.281Z,101192.05
2022-10-13T21:55:56.379Z,101183.63
2022-10-13T21:58:45.140Z,101188.34
2022-10-13T22:01:33.911Z,101185.86
2022-10-13T22:04:22.553Z,101180.91
2022-10-13T22:07:11.046Z,101180.91
2022-10-13T22:09:59.056Z,101181.94
2022-10-13T22:12:47.477Z,101176.19
2022-10-13T22:15:37.361Z,101178.02
2022-10-13T22:18:26.142Z,101180.29
2022-10-13T22:21:26.285Z,101170.62
2022-10-13T22:24:16.940Z,101174.72
2022-10-13T22:27:04.883Z,101181.27
2022-10-13T22:29:53.772Z,101174.09
2022-10-13T22:32:42.003Z,101169.77
2022-10-13T22:35:30.141Z,101172.01
2022-10-13T22:38:18.159Z,101177.56
2022-10-13T22:41:07.956Z,101181.66
2022-10-13T22:43:57.823Z,101174.05
2022-10-13T22:46:45.994Z,101177.73
2022-10-13T22:49:35.339Z,101176.28
2022-10-13T22:52:24.744Z,101176.48
2022-10-13T22:55:14.933Z,101171.55
2022-10-13T22:58:02.994Z,101169.27
2022-10-13T23:00:51.039Z,101177.47
2022-10-13T23:03:40.648Z,101173.36
2022-10-13T23:06:32.354Z,101176.43
2022-10-13T23:09:23.573Z,101174.96
2022-10-13T23:12:11.687Z,101176.37
2022-10-13T23:15:00.252Z,101172.45
2022-10-13T23:17:49.098Z,101180.23
2022-10-13T23:20:40.063Z,101184.32
2022-10-13T23:23:28.579Z,101182.41
2022-10-13T23:26:17.919Z,101181.77
2022-10-13T23:29:08.138Z,101186.48
2022-10-13T23:31:56.201Z,101179.26
2022-10-13T23:34:45.364Z,101184.98
2022-10-13T23:37:34.431Z,101180.22
2022-10-13T23:40:23.183Z,101189.45
2022-10-13T23:43:12.109Z,101189.84
2022-10-13T23:46:04.317Z,101178.09
2022-10-13T23:48:52.615Z,101179.31
2022-10-13T23:51:43.909Z,101187.08
2022-10-13T23:54:32.304Z,101183.14
2022-10-13T23:57:20.923Z,101183.71
